createdAt,value
2023-05-04T00:01:45.397Z,7.25
2023-05-04T00:04:50.964Z,7.23
2023-05-04T00:07:55.981Z,7.20
2023-05-04T00:11:03.183Z,7.16
2023-05-04T00:14:08.957Z,7.13
2023-05-04T00:17:14.686Z,7.11
2023-05-04T00:20:21.963Z,7.11
2023-05-04T00:23:20.906Z,7.10
2023-05-04T00:26:26.681Z,7.07
2023-05-04T00:29:33.352Z,7.01
2023-05-04T00:32:39.217Z,7.02
2023-05-04T00:35:44.940Z,7.00
2023-05-04T00:39:05.072Z,6.98
2023-05-04T00:42:10.142Z,6.97
2023-05-04T00:45:15.550Z,6.98
2023-05-04T00:48:21.539Z,6.99
2023-05-04T00:51:27.486Z,6.98
2023-05-04T00:54:33.683Z,6.95
2023-05-04T00:57:40.068Z,7.02
2023-05-04T01:00:39.938Z,7.01
2023-05-04T01:03:45.891Z,6.92
2023-05-04T01:07:02.650Z,6.89
2023-05-04T01:10:30.435Z,6.87
2023-05-04T01:13:37.099Z,6.77
2023-05-04T01:16:43.948Z,6.76
2023-05-04T01:19:50.096Z,6.71
2023-05-04T01:22:57.118Z,6.62
2023-05-04T01:26:23.484Z,6.56
2023-05-04T01:29:33.795Z,6.54
2023-05-04T01:32:39.469Z,6.51
2023-05-04T01:35:45.752Z,6.44
2023-05-04T01:38:51.789Z,6.40
2023-05-04T01:41:57.810Z,6.38
2023-05-04T01:45:04.344Z,6.52
2023-05-04T01:48:10.530Z,6.47
2023-05-04T01:51:16.583Z,6.48
2023-05-04T01:54:22.717Z,6.52
2023-05-04T01:57:28.557Z,6.50
2023-05-04T02:00:35.843Z,6.51
2023-05-04T02:03:41.799Z,6.50
2023-05-04T02:06:47.116Z,6.48
2023-05-04T02:09:52.102Z,6.48
2023-05-04T02:12:57.489Z,6.48
2023-05-04T02:16:03.578Z,6.50
2023-05-04T02:19:09.865Z,6.52
2023-05-04T02:22:15.365Z,6.53
2023-05-04T02:25:23.245Z,6.47
2023-05-04T02:28:28.366Z,6.43
2023-05-04T02:31:34.424Z,6.45
2023-05-04T02:34:41.865Z,6.51
2023-05-04T02:37:47.170Z,6.62
2023-05-04T02:40:52.949Z,6.72
2023-05-04T02:43:58.819Z,6.90
2023-05-04T02:47:04.137Z,7.07
2023-05-04T02:50:10.191Z,7.33
2023-05-04T02:53:15.878Z,7.64
2023-05-04T02:56:21.027Z,8.05
2023-05-04T02:59:26.641Z,8.50
2023-05-04T03:02:31.481Z,8.81
2023-05-04T03:05:36.359Z,9.06
2023-05-04T03:08:42.814Z,9.32
2023-05-04T03:11:42.047Z,9.30
2023-05-04T03:14:28.484Z,9.31
2023-05-04T03:17:22.765Z,9.35
2023-05-04T03:20:09.710Z,9.41
2023-05-04T03:23:02.616Z,9.57
2023-05-04T03:25:56.165Z,9.71
2023-05-04T03:29:03.241Z,9.96
2023-05-04T03:32:11.267Z,10.24
2023-05-04T03:35:24.107Z,10.48
2023-05-04T03:38:23.862Z,10.75
2023-05-04T03:41:29.412Z,10.99
2023-05-04T03:44:34.742Z,11.21
2023-05-04T03:47:40.735Z,11.40
2023-05-04T03:50:45.782Z,11.55
2023-05-04T03:53:50.894Z,11.59
2023-05-04T03:56:58.962Z,11.73
2023-05-04T04:00:05.982Z,11.82
2023-05-04T04:03:17.493Z,11.81
2023-05-04T04:06:24.710Z,11.79
2023-05-04T04:09:29.835Z,11.83
2023-05-04T04:12:34.694Z,11.91
2023-05-04T04:15:42.829Z,12.03
2023-05-04T04:18:48.426Z,12.20
2023-05-04T04:21:54.839Z,12.34
2023-05-04T04:25:00.953Z,12.46
2023-05-04T04:28:06.821Z,12.62
2023-05-04T04:31:12.813Z,12.74
2023-05-04T04:34:18.738Z,12.79
2023-05-04T04:37:24.741Z,12.95
2023-05-04T04:40:31.185Z,13.16
2023-05-04T04:43:37.952Z,13.36
2023-05-04T04:46:43.411Z,13.65
2023-05-04T04:49:50.208Z,14.04
2023-05-04T04:52:56.608Z,14.24
2023-05-04T04:56:02.110Z,14.42
2023-05-04T04:59:08.712Z,14.59
2023-05-04T05:02:16.698Z,14.77
2023-05-04T05:05:23.281Z,14.93
2023-05-04T05:08:29.100Z,15.14
2023-05-04T05:11:34.809Z,15.27
2023-05-04T05:14:42.404Z,15.43
2023-05-04T05:17:48.177Z,15.60
2023-05-04T05:20:53.976Z,15.79
2023-05-04T05:23:58.622Z,15.97
2023-05-04T05:27:04.475Z,16.16
2023-05-04T05:30:10.033Z,16.34
2023-05-04T05:33:15.726Z,16.53
2023-05-04T05:36:21.811Z,16.70
2023-05-04T05:39:27.337Z,16.80
2023-05-04T05:42:31.989Z,16.95
2023-05-04T05:45:37.679Z,17.14
2023-05-04T05:48:42.637Z,17.33
2023-05-04T05:51:48.278Z,17.50
2023-05-04T05:54:53.179Z,17.66
2023-05-04T05:58:00.180Z,17.77
2023-05-04T06:01:06.634Z,17.88
2023-05-04T06:04:11.439Z,17.99
2023-05-04T06:07:17.020Z,18.08
2023-05-04T06:10:23.534Z,18.25
2023-05-04T06:13:29.437Z,18.40
2023-05-04T06:16:34.937Z,18.52
2023-05-04T06:19:40.464Z,18.59
2023-05-04T06:22:46.067Z,18.63
2023-05-04T06:25:51.785Z,18.72
2023-05-04T06:28:58.328Z,18.82
2023-05-04T06:32:06.446Z,18.76
2023-05-04T06:35:19.189Z,18.80
2023-05-04T06:38:25.412Z,18.80
2023-05-04T06:41:31.044Z,18.75
2023-05-04T06:44:36.801Z,18.75
2023-05-04T06:47:41.706Z,18.93
2023-05-04T06:50:47.886Z,19.10
2023-05-04T06:53:54.095Z,19.06
2023-05-04T06:57:00.529Z,18.99
2023-05-04T07:00:07.394Z,19.00
2023-05-04T07:03:13.208Z,19.09
2023-05-04T07:06:18.127Z,19.27
2023-05-04T07:09:24.557Z,19.45
2023-05-04T07:12:25.165Z,19.66
2023-05-04T07:15:31.258Z,19.79
2023-05-04T07:18:38.172Z,19.85
2023-05-04T07:21:43.056Z,19.94
2023-05-04T07:24:47.878Z,20.10
2023-05-04T07:27:53.329Z,20.29
2023-05-04T07:31:01.274Z,20.41
2023-05-04T07:34:07.497Z,20.47
2023-05-04T07:37:12.805Z,20.42
2023-05-04T07:40:22.900Z,20.50
2023-05-04T07:43:28.422Z,20.72
2023-05-04T07:46:36.363Z,20.88
2023-05-04T07:49:42.132Z,20.95
2023-05-04T07:52:47.971Z,21.08
2023-05-04T07:55:53.967Z,21.18
2023-05-04T07:59:00.148Z,21.28
2023-05-04T08:02:04.845Z,21.32
2023-05-04T08:05:10.644Z,21.41
2023-05-04T08:08:16.719Z,21.49
2023-05-04T08:11:24.033Z,21.56
2023-05-04T08:14:30.411Z,21.51
2023-05-04T08:17:36.474Z,21.45
2023-05-04T08:20:41.317Z,21.31
2023-05-04T08:23:48.020Z,21.19
2023-05-04T08:27:06.548Z,21.11
2023-05-04T08:30:00.252Z,21.23
2023-05-04T08:33:06.529Z,21.38
2023-05-04T08:36:11.716Z,21.50
2023-05-04T08:39:09.995Z,21.49
2023-05-04T08:41:56.206Z,21.52
2023-05-04T08:44:55.417Z,21.50
2023-05-04T08:48:01.496Z,21.46
2023-05-04T08:51:06.288Z,21.44
2023-05-04T08:54:11.924Z,21.41
2023-05-04T08:57:18.606Z,21.40
2023-05-04T09:00:26.413Z,21.37
2023-05-04T09:03:27.371Z,21.39
2023-05-04T09:06:36.958Z,21.47
2023-05-04T09:09:42.760Z,21.56
2023-05-04T09:12:50.005Z,21.63
2023-05-04T09:15:56.285Z,21.82
2023-05-04T09:19:02.319Z,21.90
2023-05-04T09:22:07.676Z,21.95
2023-05-04T09:25:27.205Z,22.02
2023-05-04T09:28:32.579Z,22.07
2023-05-04T09:31:38.952Z,22.10
2023-05-04T09:34:38.649Z,22.12
2023-05-04T09:37:45.060Z,22.09
2023-05-04T09:40:55.549Z,22.03
2023-05-04T09:44:02.120Z,21.88
2023-05-04T09:47:10.380Z,21.79
2023-05-04T09:50:32.193Z,21.71
2023-05-04T09:53:39.034Z,21.63
2023-05-04T09:57:03.776Z,21.49
2023-05-04T10:00:11.475Z,21.43
2023-05-04T10:03:19.278Z,21.43
2023-05-04T10:06:17.914Z,21.45
2023-05-04T10:09:25.101Z,21.43
2023-05-04T10:12:30.963Z,21.48
2023-05-04T10:15:37.792Z,21.45
2023-05-04T10:18:57.657Z,21.31
2023-05-04T10:22:49.013Z,21.27
2023-05-04T10:26:14.154Z,21.28
2023-05-04T10:29:41.047Z,21.33
2023-05-04T10:32:47.363Z,21.41
2023-05-04T10:35:55.024Z,21.50
2023-05-04T10:39:00.287Z,21.57
2023-05-04T10:42:19.909Z,21.60
2023-05-04T10:45:25.932Z,21.55
2023-05-04T10:48:30.644Z,21.46
2023-05-04T10:51:48.615Z,21.41
2023-05-04T10:54:46.874Z,21.32
2023-05-04T10:58:09.649Z,21.31
2023-05-04T11:01:15.898Z,21.29
2023-05-04T11:04:21.633Z,21.36
2023-05-04T11:07:27.504Z,21.35
2023-05-04T11:10:38.542Z,21.38
2023-05-04T11:13:51.255Z,21.31
2023-05-04T11:16:57.056Z,21.24
2023-05-04T11:20:03.949Z,21.24
2023-05-04T11:23:09.161Z,21.21
2023-05-04T11:26:21.442Z,21.12
2023-05-04T11:29:27.758Z,21.11
2023-05-04T11:32:34.510Z,20.91
2023-05-04T11:35:40.325Z,20.86
2023-05-04T11:38:47.386Z,20.78
2023-05-04T11:41:52.798Z,20.84
2023-05-04T11:44:59.579Z,20.73
2023-05-04T11:48:05.127Z,20.70
2023-05-04T11:51:11.478Z,20.72
2023-05-04T11:54:17.218Z,20.75
2023-05-04T11:57:22.457Z,20.82
2023-05-04T12:00:29.282Z,20.89
2023-05-04T12:03:53.885Z,20.96
2023-05-04T12:06:54.162Z,20.93
2023-05-04T12:10:01.368Z,20.95
2023-05-04T12:13:06.743Z,20.97
2023-05-04T12:16:15.967Z,21.02
2023-05-04T12:19:25.680Z,21.07
2023-05-04T12:22:31.213Z,21.06
2023-05-04T12:25:47.353Z,21.05
2023-05-04T12:28:44.825Z,20.99
2023-05-04T12:31:51.567Z,20.94
2023-05-04T12:34:57.375Z,20.92
2023-05-04T12:38:02.772Z,20.89
2023-05-04T12:41:10.276Z,20.86
2023-05-04T12:44:17.818Z,20.75
2023-05-04T12:47:24.406Z,20.70
2023-05-04T12:50:29.841Z,20.70
2023-05-04T12:53:38.229Z,20.75
2023-05-04T12:56:46.718Z,20.62
2023-05-04T12:59:52.619Z,20.56
2023-05-04T13:02:59.242Z,20.50
2023-05-04T13:06:06.664Z,20.49
2023-05-04T13:09:13.875Z,20.53
2023-05-04T13:12:19.446Z,20.55
2023-05-04T13:15:20.423Z,20.42
2023-05-04T13:18:26.149Z,20.48
2023-05-04T13:21:31.812Z,20.41
2023-05-04T13:24:36.566Z,20.33
2023-05-04T13:27:41.977Z,20.28
2023-05-04T13:30:47.411Z,20.25
2023-05-04T13:33:53.142Z,20.22
2023-05-04T13:36:59.071Z,20.20
2023-05-04T13:40:06.341Z,20.18
2023-05-04T13:43:12.045Z,20.16
2023-05-04T13:46:14.695Z,20.12
2023-05-04T13:49:20.195Z,20.17
2023-05-04T13:55:12.658Z,20.17
2023-05-04T13:58:18.850Z,20.13
2023-05-04T14:01:24.177Z,20.16
2023-05-04T14:04:30.476Z,20.20
2023-05-04T14:07:36.191Z,20.21
2023-05-04T14:10:41.856Z,20.24
2023-05-04T14:13:49.603Z,20.08
2023-05-04T14:16:55.828Z,20.06
2023-05-04T14:20:01.665Z,20.01
2023-05-04T14:23:07.262Z,19.94
2023-05-04T14:26:13.059Z,19.97
2023-05-04T14:29:21.422Z,19.94
2023-05-04T14:32:28.362Z,19.90
2023-05-04T14:35:34.942Z,19.89
2023-05-04T14:38:42.024Z,19.95
2023-05-04T14:41:48.585Z,19.87
2023-05-04T14:44:47.465Z,19.80
2023-05-04T14:47:40.971Z,19.85
2023-05-04T14:50:45.964Z,19.86
2023-05-04T14:53:55.174Z,19.87
2023-05-04T14:57:01.761Z,19.84
2023-05-04T15:00:08.005Z,19.83
2023-05-04T15:03:14.110Z,19.83
2023-05-04T15:06:20.495Z,19.85
2023-05-04T15:09:21.078Z,19.82
2023-05-04T15:12:27.542Z,19.67
2023-05-04T15:15:32.364Z,19.63
2023-05-04T15:18:39.559Z,19.47
2023-05-04T15:21:45.133Z,19.40
2023-05-04T15:24:50.521Z,19.38
2023-05-04T15:27:55.884Z,19.30
2023-05-04T15:31:01.653Z,19.12
2023-05-04T15:34:08.416Z,19.04
2023-05-04T15:37:18.793Z,18.88
2023-05-04T15:40:20.838Z,18.80
2023-05-04T15:43:27.389Z,18.65
2023-05-04T15:46:32.351Z,18.59
2023-05-04T15:49:39.240Z,18.57
2023-05-04T15:52:44.888Z,18.54
2023-05-04T15:55:51.482Z,18.58
2023-05-04T15:58:57.828Z,18.58
2023-05-04T16:02:06.737Z,18.49
2023-05-04T16:05:16.383Z,18.39
2023-05-04T16:08:21.586Z,18.26
2023-05-04T16:11:29.557Z,18.12
2023-05-04T16:14:39.982Z,17.99
2023-05-04T16:17:45.955Z,17.89
2023-05-04T16:20:51.440Z,17.79
2023-05-04T16:23:58.643Z,17.67
2023-05-04T16:27:04.508Z,17.56
2023-05-04T16:30:10.379Z,17.42
2023-05-04T16:33:19.951Z,17.28
2023-05-04T16:36:25.494Z,17.14
2023-05-04T16:39:32.916Z,17.02
2023-05-04T16:42:38.700Z,16.87
2023-05-04T16:45:43.725Z,16.74
2023-05-04T16:48:51.821Z,16.61
2023-05-04T16:51:59.880Z,16.50
2023-05-04T16:55:05.726Z,16.38
2023-05-04T16:58:12.247Z,16.25
2023-05-04T17:01:18.083Z,16.10
2023-05-04T17:04:25.537Z,15.96
2023-05-04T17:07:31.299Z,15.87
2023-05-04T17:10:37.711Z,15.74
2023-05-04T17:13:43.389Z,15.66
2023-05-04T17:16:48.848Z,15.55
2023-05-04T17:19:56.306Z,15.56
2023-05-04T17:23:05.136Z,15.45
2023-05-04T17:26:11.148Z,15.31
2023-05-04T17:29:16.549Z,15.30
2023-05-04T17:32:22.327Z,15.19
2023-05-04T17:35:27.672Z,15.06
2023-05-04T17:38:34.308Z,14.93
2023-05-04T17:41:40.316Z,14.82
2023-05-04T17:44:45.486Z,14.79
2023-05-04T17:47:53.544Z,14.78
2023-05-04T17:50:59.633Z,14.73
2023-05-04T17:54:04.376Z,14.57
2023-05-04T17:57:10.132Z,14.56
2023-05-04T18:00:15.908Z,14.51
2023-05-04T18:03:21.481Z,14.46
2023-05-04T18:06:27.076Z,14.40
2023-05-04T18:09:31.944Z,14.36
2023-05-04T18:12:38.168Z,14.35
2023-05-04T18:15:44.713Z,14.29
2023-05-04T18:18:49.789Z,14.29
2023-05-04T18:21:56.785Z,14.32
2023-05-04T18:25:03.266Z,14.32
2023-05-04T18:28:08.348Z,14.27
2023-05-04T18:31:14.500Z,14.19
2023-05-04T18:34:19.921Z,14.19
2023-05-04T18:37:27.014Z,14.05
2023-05-04T18:40:33.142Z,13.96
2023-05-04T18:43:40.094Z,13.91
2023-05-04T18:46:45.628Z,13.85
2023-05-04T18:49:52.316Z,13.80
2023-05-04T18:52:59.501Z,13.76
2023-05-04T18:56:15.825Z,13.75
2023-05-04T18:59:21.123Z,13.68
2023-05-04T19:02:28.691Z,13.60
2023-05-04T19:05:34.250Z,13.62
2023-05-04T19:08:40.395Z,13.57
2023-05-04T19:11:46.618Z,13.54
2023-05-04T19:14:53.390Z,13.57
2023-05-04T19:17:59.506Z,13.48
2023-05-04T19:21:04.937Z,13.45
2023-05-04T19:24:10.361Z,13.38
2023-05-04T19:27:16.579Z,13.30
2023-05-04T19:30:23.535Z,13.35
2023-05-04T19:33:40.473Z,13.33
2023-05-04T19:36:29.261Z,13.34
2023-05-04T19:39:17.012Z,13.30
2023-05-04T19:42:08.566Z,13.30
2023-05-04T19:45:15.875Z,13.30
2023-05-04T19:48:23.406Z,13.29
2023-05-04T19:51:28.782Z,13.34
2023-05-04T19:54:33.311Z,13.20
2023-05-04T19:57:39.851Z,13.19
2023-05-04T20:00:44.892Z,13.18
2023-05-04T20:03:50.889Z,13.14
2023-05-04T20:06:57.129Z,13.11
2023-05-04T20:10:02.910Z,13.09
2023-05-04T20:13:08.139Z,13.02
2023-05-04T20:16:13.911Z,13.03
2023-05-04T20:19:18.661Z,12.96
2023-05-04T20:22:25.309Z,12.95
2023-05-04T20:25:31.009Z,12.94
2023-05-04T20:28:36.477Z,12.96
2023-05-04T20:31:41.676Z,12.89
2023-05-04T20:34:49.480Z,12.86
2023-05-04T20:37:54.787Z,12.82
2023-05-04T20:41:00.060Z,12.76
2023-05-04T20:44:05.852Z,12.74
2023-05-04T20:47:12.762Z,12.73
2023-05-04T20:50:18.807Z,12.72
2023-05-04T20:53:24.184Z,12.76
2023-05-04T20:56:22.741Z,12.79
2023-05-04T20:59:29.060Z,12.79
2023-05-04T21:02:34.515Z,12.87
2023-05-04T21:05:40.148Z,12.82
2023-05-04T21:08:46.374Z,12.78
2023-05-04T21:11:52.942Z,12.72
2023-05-04T21:14:52.651Z,12.77
2023-05-04T21:17:58.800Z,12.75
2023-05-04T21:21:04.661Z,12.72
2023-05-04T21:24:11.473Z,12.67
2023-05-04T21:27:17.401Z,12.74
2023-05-04T21:30:24.204Z,12.78
2023-05-04T21:33:29.534Z,12.73
2023-05-04T21:36:36.149Z,12.81
2023-05-04T21:39:43.027Z,12.75
2023-05-04T21:42:49.421Z,12.66
2023-05-04T21:45:54.695Z,12.67
2023-05-04T21:49:01.160Z,12.70
2023-05-04T21:51:59.675Z,12.70
2023-05-04T21:54:51.918Z,12.70
2023-05-04T21:57:58.306Z,12.71
2023-05-04T22:01:03.260Z,12.72
2023-05-04T22:04:09.938Z,12.74
2023-05-04T22:07:15.971Z,12.62
2023-05-04T22:10:22.394Z,12.57
2023-05-04T22:13:27.941Z,12.52
2023-05-04T22:16:33.457Z,12.48
2023-05-04T22:19:39.761Z,12.41
2023-05-04T22:22:38.045Z,12.33
2023-05-04T22:25:43.885Z,12.33
2023-05-04T22:28:49.778Z,12.30
2023-05-04T22:31:54.786Z,12.31
2023-05-04T22:35:01.195Z,12.29
2023-05-04T22:38:07.845Z,12.30
2023-05-04T22:41:13.424Z,12.31
2023-05-04T22:44:20.047Z,12.30
2023-05-04T22:47:26.701Z,12.36
2023-05-04T22:50:32.424Z,12.47
2023-05-04T22:53:31.888Z,12.42
2023-05-04T22:56:39.239Z,12.36
2023-05-04T22:59:44.806Z,12.39
2023-05-04T23:02:37.334Z,12.36
2023-05-04T23:05:44.081Z,12.37
2023-05-04T23:08:52.592Z,12.36
2023-05-04T23:12:00.374Z,12.35
2023-05-04T23:15:05.869Z,12.34
2023-05-04T23:18:11.736Z,12.32
2023-05-04T23:21:17.321Z,12.34
2023-05-04T23:24:22.885Z,12.34
2023-05-04T23:27:29.457Z,12.37
2023-05-04T23:30:35.592Z,12.33
2023-05-04T23:33:41.097Z,12.31
2023-05-04T23:36:46.753Z,12.33
2023-05-04T23:39:52.347Z,12.36
2023-05-04T23:42:58.114Z,12.38
2023-05-04T23:46:05.154Z,12.32
2023-05-04T23:49:10.636Z,12.34
2023-05-04T23:52:15.594Z,12.27
2023-05-04T23:55:21.134Z,12.32
2023-05-04T23:58:26.789Z,12.45
